Time;durP1;ratioP1;P1;durP2;ratioP2;P2;SDS_P1;SDS_P2;PMS_P1;PMS_P2;Temp;Humidity;BMP_temperature;BMP_pressure;BME280_temperature;BME280_humidity;BME280_pressure;Samples;Min_cycle;Max_cycle;Signal;HPM_P1;HPM_P2
2023/03/23 00:01:32;;;;;;;3.47;1.63;;;18.50;43.90;;;;;;5048042;28;20505;-86
2023/03/23 00:03:59;;;;;;;2.83;1.87;;;18.50;43.80;;;;;;5045105;28;20463;-86
2023/03/23 00:06:32;;;;;;;2.03;1.83;;;18.50;44.20;;;;;;5041346;28;20559;-86
2023/03/23 00:09:03;;;;;;;2.93;1.47;;;18.50;44.00;;;;;;5061690;28;20448;-86
2023/03/23 00:11:31;;;;;;;2.77;1.93;;;18.50;43.90;;;;;;5038560;28;20439;-86
2023/03/23 00:14:02;;;;;;;3.53;1.53;;;18.40;44.30;;;;;;5048006;28;20464;-86
2023/03/23 00:16:31;;;;;;;1.87;1.77;;;18.40;44.80;;;;;;5040643;28;20456;-86
2023/03/23 00:19:01;;;;;;;4.10;1.80;;;18.10;45.20;;;;;;5058497;28;20440;-87
2023/03/23 00:21:34;;;;;;;1.70;1.60;;;18.20;45.30;;;;;;5049657;28;20961;-85
2023/03/23 00:24:06;;;;;;;2.63;1.63;;;18.20;45.00;;;;;;5066771;28;20860;-87
2023/03/23 00:26:34;;;;;;;2.40;1.90;;;18.30;44.90;;;;;;5041175;28;20518;-86
2023/03/23 00:29:04;;;;;;;1.63;1.53;;;18.20;45.10;;;;;;5038989;28;20452;-87
2023/03/23 00:31:32;;;;;;;1.70;1.60;;;18.10;45.20;;;;;;5042516;28;20447;-84
2023/03/23 00:34:03;;;;;;;1.70;1.60;;;18.10;45.20;;;;;;5066692;28;20525;-82
2023/03/23 00:36:31;;;;;;;2.53;1.60;;;17.90;45.30;;;;;;5041924;28;20546;-86
2023/03/23 00:38:59;;;;;;;3.07;1.60;;;17.70;46.20;;;;;;5033249;28;20455;-86
2023/03/23 00:41:27;;;;;;;2.00;1.50;;;17.80;45.90;;;;;;5063307;28;20445;-86
2023/03/23 00:43:55;;;;;;;2.90;1.63;;;17.90;45.80;;;;;;5048608;28;20452;-87
2023/03/23 00:46:24;;;;;;;1.87;1.77;;;18.00;45.70;;;;;;5054911;28;21427;-86
2023/03/23 00:48:52;;;;;;;3.40;1.60;;;18.10;45.60;;;;;;5046014;28;20460;-85
2023/03/23 00:51:19;;;;;;;3.70;1.67;;;18.30;45.50;;;;;;5046095;28;20440;-86
2023/03/23 00:53:47;;;;;;;2.30;1.90;;;18.20;45.50;;;;;;5047372;28;21088;-86
2023/03/23 00:56:15;;;;;;;3.00;1.50;;;18.10;45.60;;;;;;5071700;28;20472;-86
2023/03/23 00:58:42;;;;;;;2.10;1.50;;;18.20;45.00;;;;;;5059094;28;20531;-86
2023/03/23 01:01:09;;;;;;;2.77;1.50;;;18.20;45.10;;;;;;5032416;28;20448;-86
2023/03/23 01:03:38;;;;;;;1.87;1.50;;;18.00;45.50;;;;;;5074746;28;20506;-86
2023/03/23 01:06:12;;;;;;;1.50;1.40;;;17.80;45.40;;;;;;5032863;28;21088;-86
2023/03/23 01:08:44;;;;;;;1.70;1.40;;;17.70;45.70;;;;;;5061608;28;20463;-86
2023/03/23 01:11:13;;;;;;;4.90;1.50;;;17.90;45.20;;;;;;5044367;28;20439;-87
2023/03/23 01:13:41;;;;;;;2.07;1.60;;;18.10;45.10;;;;;;5047182;28;20464;-86
2023/03/23 01:16:08;;;;;;;2.90;1.67;;;18.20;45.00;;;;;;5050275;28;20456;-87
2023/03/23 01:18:35;;;;;;;1.70;1.60;;;18.30;44.80;;;;;;5040903;28;20443;-86
2023/03/23 01:21:06;;;;;;;2.27;1.20;;;18.10;44.80;;;;;;5044071;28;20476;-84
2023/03/23 01:23:35;;;;;;;2.60;1.60;;;18.10;44.50;;;;;;5056190;28;20542;-86
2023/03/23 01:26:05;;;;;;;1.40;1.30;;;17.80;45.60;;;;;;5059604;28;20479;-86
2023/03/23 01:28:32;;;;;;;2.90;1.60;;;17.80;45.20;;;;;;5017896;28;20472;-86
2023/03/23 01:31:01;;;;;;;1.67;1.40;;;17.80;45.00;;;;;;5057979;28;20464;-85
2023/03/23 01:33:29;;;;;;;1.80;1.60;;;17.80;45.20;;;;;;5054065;28;20527;-85
2023/03/23 01:35:56;;;;;;;2.77;1.57;;;17.70;45.00;;;;;;5064255;28;20583;-86
2023/03/23 01:38:25;;;;;;;1.80;1.50;;;17.60;45.70;;;;;;5051902;28;20480;-83
2023/03/23 01:40:52;;;;;;;1.67;1.27;;;17.80;45.50;;;;;;5042027;28;20546;-85
2023/03/23 01:43:19;;;;;;;1.70;1.50;;;17.80;45.30;;;;;;5055499;28;20452;-85
2023/03/23 01:45:46;;;;;;;1.40;1.30;;;17.90;45.20;;;;;;5032031;28;20476;-87
2023/03/23 01:48:17;;;;;;;1.90;1.27;;;18.00;44.90;;;;;;5049571;28;20474;-86
2023/03/23 01:50:54;;;;;;;3.50;1.60;;;17.90;44.70;;;;;;5039955;28;20674;-86
2023/03/23 01:53:26;;;;;;;1.83;1.33;;;17.90;44.70;;;;;;5038855;28;20456;-86
2023/03/23 01:55:55;;;;;;;1.63;1.43;;;17.80;44.70;;;;;;5056559;28;20467;-85
2023/03/23 01:58:27;;;;;;;1.53;1.43;;;17.70;45.30;;;;;;5061772;28;20447;-84
2023/03/23 02:00:56;;;;;;;2.50;1.33;;;17.60;45.10;;;;;;5042824;28;20538;-86
2023/03/23 02:03:24;;;;;;;4.50;1.30;;;17.60;45.10;;;;;;5046148;28;20859;-84
2023/03/23 02:05:52;;;;;;;1.63;1.37;;;17.60;45.10;;;;;;5046112;28;20468;-86
2023/03/23 02:08:30;;;;;;;4.27;1.60;;;17.70;44.80;;;;;;5039092;28;20456;-85
2023/03/23 02:10:57;;;;;;;3.90;1.50;;;17.70;45.40;;;;;;5033127;28;20473;-86
2023/03/23 02:13:25;;;;;;;1.67;1.57;;;17.60;44.60;;;;;;5057153;28;20496;-86
2023/03/23 02:16:04;;;;;;;3.00;1.47;;;17.30;45.30;;;;;;5028097;28;20540;-87
2023/03/23 02:18:41;;;;;;;3.83;1.30;;;17.20;46.00;;;;;;5041709;28;20451;-86
2023/03/23 02:21:40;;;;;;;3.30;1.27;;;17.40;45.70;;;;;;5048007;28;20441;-86
2023/03/23 02:24:50;;;;;;;1.80;1.40;;;17.40;45.70;;;;;;5057681;28;20444;-86
2023/03/23 02:27:29;;;;;;;2.03;1.30;;;17.60;45.20;;;;;;5045132;28;20464;-86
2023/03/23 02:30:11;;;;;;;1.93;1.30;;;17.40;45.20;;;;;;5031441;28;20534;-84
2023/03/23 02:33:04;;;;;;;1.73;1.40;;;17.70;45.40;;;;;;5058409;28;20467;-86
2023/03/23 02:35:36;;;;;;;3.77;1.50;;;17.70;45.30;;;;;;5022238;28;20456;-85
2023/03/23 02:38:07;;;;;;;4.97;1.87;;;17.70;45.70;;;;;;5027075;28;20441;-86
2023/03/23 02:40:40;;;;;;;1.70;1.27;;;17.80;45.00;;;;;;5048531;28;20827;-87
2023/03/23 02:43:10;;;;;;;1.33;1.23;;;17.80;45.10;;;;;;5041231;28;20440;-88
2023/03/23 02:45:39;;;;;;;2.00;1.40;;;17.40;45.00;;;;;;5045451;28;20473;-86
2023/03/23 02:48:08;;;;;;;1.43;1.33;;;17.60;45.30;;;;;;5059938;28;20585;-85
2023/03/23 02:50:38;;;;;;;1.30;1.20;;;17.70;44.90;;;;;;5021206;28;20900;-86
2023/03/23 02:53:08;;;;;;;2.70;1.43;;;17.80;44.90;;;;;;5071276;28;20455;-86
2023/03/23 02:55:41;;;;;;;1.17;1.07;;;17.80;44.90;;;;;;5040223;28;20507;-86
2023/03/23 02:58:10;;;;;;;1.20;1.10;;;17.60;44.80;;;;;;5031912;28;20433;-87
2023/03/23 03:00:37;;;;;;;1.30;1.20;;;17.70;45.20;;;;;;5061370;28;20449;-85
2023/03/23 03:03:06;;;;;;;1.90;1.40;;;17.60;44.80;;;;;;5025994;28;20528;-87
2023/03/23 03:05:43;;;;;;;1.70;1.20;;;17.60;44.80;;;;;;5040552;28;20471;-87
2023/03/23 03:08:19;;;;;;;1.10;1.00;;;17.50;45.30;;;;;;5022698;28;20984;-86
2023/03/23 03:10:54;;;;;;;1.47;1.13;;;17.60;45.40;;;;;;5057500;28;20440;-87
2023/03/23 03:13:32;;;;;;;1.37;0.90;;;17.70;45.00;;;;;;5038633;28;20452;-85
2023/03/23 03:16:08;;;;;;;1.50;1.40;;;17.60;45.00;;;;;;5030015;28;20472;-85
2023/03/23 03:18:43;;;;;;;1.10;1.00;;;17.70;45.00;;;;;;5044739;28;20483;-84
2023/03/23 03:21:14;;;;;;;1.40;1.13;;;17.80;45.00;;;;;;5045158;28;20451;-86
2023/03/23 03:23:45;;;;;;;1.50;1.00;;;17.80;44.80;;;;;;5038117;28;20977;-85
2023/03/23 03:26:16;;;;;;;1.57;1.37;;;17.60;44.40;;;;;;5045057;28;21266;-86
2023/03/23 03:28:50;;;;;;;1.23;1.00;;;17.40;45.10;;;;;;5047762;28;20838;-86
2023/03/23 03:31:21;;;;;;;2.20;1.30;;;17.20;45.80;;;;;;5047576;28;20941;-86
2023/03/23 03:33:48;;;;;;;1.93;1.40;;;17.20;45.50;;;;;;5028992;28;20452;-86
2023/03/23 03:36:20;;;;;;;1.40;1.27;;;17.20;45.40;;;;;;5042274;28;21000;-86
2023/03/23 03:38:50;;;;;;;1.93;1.57;;;17.30;45.40;;;;;;5038797;28;20440;-85
2023/03/23 03:41:19;;;;;;;1.80;1.30;;;17.30;45.50;;;;;;5054579;28;21249;-84
2023/03/23 03:43:47;;;;;;;1.30;1.10;;;17.50;45.40;;;;;;5046310;28;20439;-87
2023/03/23 03:46:14;;;;;;;1.77;1.20;;;17.50;45.30;;;;;;5026006;28;20474;-86
2023/03/23 03:48:41;;;;;;;1.87;1.33;;;17.60;45.10;;;;;;5057721;28;20591;-84
2023/03/23 03:51:08;;;;;;;1.00;0.90;;;17.40;45.30;;;;;;5047368;28;20450;-85
2023/03/23 03:53:39;;;;;;;1.40;1.27;;;17.40;45.20;;;;;;5035624;28;21161;-87
2023/03/23 03:56:07;;;;;;;1.87;1.10;;;17.60;45.30;;;;;;5067500;28;20520;-86
2023/03/23 03:58:42;;;;;;;1.57;1.30;;;17.60;44.90;;;;;;5057651;28;20580;-86
2023/03/23 04:01:23;;;;;;;1.30;1.10;;;17.60;44.80;;;;;;5031686;28;20938;-84
2023/03/23 04:03:51;;;;;;;1.47;1.37;;;17.50;45.00;;;;;;5043268;28;20470;-87
2023/03/23 04:06:27;;;;;;;1.23;1.13;;;17.60;45.10;;;;;;5031550;28;20500;-86
2023/03/23 04:08:56;;;;;;;2.47;1.40;;;17.60;44.90;;;;;;5035792;28;20487;-86
2023/03/23 04:11:23;;;;;;;2.17;1.10;;;17.40;45.10;;;;;;5055439;28;20458;-85
2023/03/23 04:13:51;;;;;;;1.37;1.20;;;17.30;45.10;;;;;;5064645;28;20460;-84
2023/03/23 04:16:22;;;;;;;1.90;1.13;;;17.30;45.50;;;;;;5048293;28;21060;-85
2023/03/23 04:18:50;;;;;;;1.43;1.10;;;17.20;45.90;;;;;;5060613;28;20464;-86
2023/03/23 04:21:18;;;;;;;2.10;1.20;;;17.30;45.50;;;;;;5034568;28;20452;-86
2023/03/23 04:23:48;;;;;;;1.30;1.20;;;17.30;45.50;;;;;;5051981;28;20491;-87
2023/03/23 04:26:18;;;;;;;1.40;1.30;;;17.40;45.60;;;;;;5039647;28;20544;-86
2023/03/23 04:28:50;;;;;;;2.73;1.30;;;17.50;45.30;;;;;;5051123;28;20479;-87
2023/03/23 04:31:29;;;;;;;1.70;1.27;;;17.40;45.90;;;;;;5042106;28;20451;-86
2023/03/23 04:34:06;;;;;;;1.50;1.40;;;17.40;45.10;;;;;;5049448;28;20448;-84
2023/03/23 04:36:40;;;;;;;1.67;1.43;;;17.50;45.30;;;;;;5045025;28;20972;-86
2023/03/23 04:39:15;;;;;;;2.40;2.00;;;17.50;45.00;;;;;;5026445;28;20817;-85
2023/03/23 04:41:45;;;;;;;3.23;1.27;;;17.60;45.00;;;;;;5043396;28;21296;-86
2023/03/23 04:44:23;;;;;;;1.57;1.43;;;17.70;44.60;;;;;;5043267;28;20456;-86
2023/03/23 04:47:01;;;;;;;1.70;1.60;;;17.70;45.00;;;;;;5035327;28;20456;-85
2023/03/23 04:49:29;;;;;;;1.60;1.50;;;17.90;45.00;;;;;;5025803;28;20518;-87
2023/03/23 04:52:06;;;;;;;1.90;1.50;;;17.90;44.80;;;;;;5047124;28;20456;-86
2023/03/23 04:54:59;;;;;;;2.40;2.10;;;17.80;45.10;;;;;;5055576;28;20453;-86
2023/03/23 04:57:29;;;;;;;2.07;1.40;;;17.80;45.20;;;;;;5030078;28;20479;-85
2023/03/23 05:00:16;;;;;;;3.63;1.50;;;17.50;45.50;;;;;;5048576;28;20474;-85
2023/03/23 05:02:51;;;;;;;2.87;1.43;;;17.80;45.50;;;;;;5040881;28;20449;-87
2023/03/23 05:05:20;;;;;;;1.70;1.43;;;17.90;45.40;;;;;;5030838;28;20472;-86
2023/03/23 05:07:47;;;;;;;2.10;1.60;;;18.00;45.60;;;;;;5062225;28;20544;-86
2023/03/23 05:10:18;;;;;;;2.23;1.50;;;17.80;45.90;;;;;;5050986;28;20435;-86
2023/03/23 05:12:47;;;;;;;1.70;1.40;;;17.80;46.80;;;;;;5031976;28;20957;-87
2023/03/23 05:15:16;;;;;;;2.53;1.50;;;17.60;47.20;;;;;;5058080;28;20463;-85
2023/03/23 05:17:45;;;;;;;1.80;1.43;;;17.80;47.60;;;;;;5045475;28;20452;-85
2023/03/23 05:20:20;;;;;;;1.77;1.40;;;17.80;47.20;;;;;;5063791;28;20476;-85
2023/03/23 05:22:53;;;;;;;1.43;1.33;;;17.90;46.90;;;;;;5046303;28;20543;-86
2023/03/23 05:25:28;;;;;;;3.70;1.73;;;17.80;46.60;;;;;;5056561;28;20478;-84
2023/03/23 05:28:03;;;;;;;1.57;1.40;;;18.00;48.00;;;;;;5032687;28;20471;-87
2023/03/23 05:30:57;;;;;;;1.57;1.43;;;18.10;47.90;;;;;;5070219;28;20463;-86
2023/03/23 05:33:28;;;;;;;2.07;1.87;;;18.10;48.60;;;;;;5069951;28;20472;-87
2023/03/23 05:36:02;;;;;;;3.93;1.53;;;18.20;49.00;;;;;;5032152;28;20881;-84
2023/03/23 05:38:36;;;;;;;1.87;1.77;;;18.20;50.00;;;;;;5046450;28;20439;-84
2023/03/23 05:41:03;;;;;;;2.10;1.60;;;18.10;49.90;;;;;;5048073;28;20431;-85
2023/03/23 05:43:40;;;;;;;2.43;2.20;;;18.20;49.90;;;;;;5027617;28;20453;-85
2023/03/23 05:46:26;;;;;;;2.20;2.00;;;18.20;50.20;;;;;;5070717;28;20882;-84
2023/03/23 05:48:57;;;;;;;2.87;2.17;;;17.90;50.20;;;;;;5046287;28;21174;-86
2023/03/23 05:51:31;;;;;;;1.90;1.70;;;17.90;51.70;;;;;;5038386;28;20451;-84
2023/03/23 05:53:58;;;;;;;2.10;1.70;;;17.40;51.80;;;;;;5029617;28;20536;-86
2023/03/23 05:56:26;;;;;;;2.60;1.90;;;17.40;51.50;;;;;;5045668;28;20461;-86
2023/03/23 05:59:06;;;;;;;1.90;1.70;;;17.40;51.80;;;;;;5023955;28;20991;-87
2023/03/23 06:01:35;;;;;;;2.70;1.63;;;17.40;52.80;;;;;;5055982;28;20448;-86
2023/03/23 06:04:02;;;;;;;1.60;1.50;;;17.20;52.20;;;;;;5057957;28;20448;-85
2023/03/23 06:06:40;;;;;;;2.50;1.60;;;17.30;52.20;;;;;;5028704;28;20567;-86
2023/03/23 06:09:11;;;;;;;1.93;1.50;;;17.10;51.50;;;;;;5064441;28;20472;-86
2023/03/23 06:12:04;;;;;;;1.60;1.50;;;17.10;52.00;;;;;;5035197;28;20440;-86
2023/03/23 06:14:43;;;;;;;2.43;1.70;;;17.20;51.10;;;;;;5039149;28;20460;-85
2023/03/23 06:17:11;;;;;;;1.90;1.70;;;17.10;51.30;;;;;;5057211;28;20504;-86
2023/03/23 06:19:38;;;;;;;2.40;1.60;;;16.90;51.10;;;;;;5056477;28;20436;-88
2023/03/23 06:22:11;;;;;;;2.17;1.67;;;16.60;52.00;;;;;;5047898;28;20531;-84
2023/03/23 06:24:57;;;;;;;2.23;1.60;;;16.70;52.30;;;;;;5045867;28;20528;-86
2023/03/23 06:27:33;;;;;;;1.60;1.50;;;17.00;52.10;;;;;;5051960;28;20448;-86
2023/03/23 06:30:02;;;;;;;2.13;1.70;;;17.10;51.30;;;;;;5054214;28;20460;-86
2023/03/23 06:32:31;;;;;;;2.63;1.77;;;17.10;52.10;;;;;;5044492;28;20448;-87
2023/03/23 06:34:59;;;;;;;2.53;1.53;;;17.20;51.20;;;;;;5048281;28;20448;-85
2023/03/23 06:38:01;;;;;;;1.77;1.43;;;17.20;51.50;;;;;;5057418;28;21144;-84
2023/03/23 06:40:52;;;;;;;1.30;1.20;;;17.10;51.00;;;;;;5062814;28;20605;-86
2023/03/23 06:43:19;;;;;;;2.20;1.70;;;17.30;51.10;;;;;;5051125;28;20444;-86
2023/03/23 06:46:03;;;;;;;2.63;2.03;;;17.40;50.90;;;;;;5036085;28;20475;-87
2023/03/23 06:48:30;;;;;;;2.70;1.70;;;17.10;51.10;;;;;;5059410;28;20474;-84
2023/03/23 06:50:57;;;;;;;6.03;3.60;;;17.10;51.40;;;;;;5028247;28;20502;-86
2023/03/23 06:53:26;;;;;;;4.30;2.70;;;17.30;51.10;;;;;;5054165;28;21200;-84
2023/03/23 06:55:56;;;;;;;11.37;5.20;;;17.30;50.70;;;;;;5048927;28;20468;-86
2023/03/23 06:58:24;;;;;;;2.73;2.10;;;17.40;51.50;;;;;;5024223;28;20534;-85
2023/03/23 07:00:56;;;;;;;2.40;1.80;;;17.30;50.90;;;;;;5055135;28;20445;-83
2023/03/23 07:03:25;;;;;;;2.80;1.93;;;17.30;50.90;;;;;;5045554;28;20452;-86
2023/03/23 07:05:53;;;;;;;2.40;2.13;;;17.40;51.00;;;;;;5045016;28;20479;-86
2023/03/23 07:08:22;;;;;;;5.43;2.87;;;17.60;51.00;;;;;;5072527;28;20441;-85
2023/03/23 07:10:53;;;;;;;1.83;1.73;;;17.60;50.80;;;;;;5027555;28;20449;-86
2023/03/23 07:13:26;;;;;;;1.90;1.80;;;17.60;50.50;;;;;;5030259;28;20509;-86
2023/03/23 07:15:57;;;;;;;3.43;2.00;;;17.60;50.50;;;;;;5046447;28;20547;-86
2023/03/23 07:18:26;;;;;;;2.73;1.70;;;17.60;50.10;;;;;;5039114;28;20448;-84
2023/03/23 07:20:54;;;;;;;2.53;1.77;;;17.50;50.70;;;;;;5057558;28;20531;-86
2023/03/23 07:23:27;;;;;;;1.70;1.40;;;17.30;51.20;;;;;;5037203;28;20440;-85
2023/03/23 07:26:07;;;;;;;1.60;1.50;;;17.30;51.00;;;;;;5040593;28;20554;-86
2023/03/23 07:28:48;;;;;;;2.00;1.53;;;17.30;50.70;;;;;;5021025;28;20550;-85
2023/03/23 07:31:22;;;;;;;1.53;1.43;;;17.40;51.10;;;;;;5041038;28;20921;-87
2023/03/23 07:33:51;;;;;;;3.53;1.93;;;17.40;51.00;;;;;;5029915;28;20510;-86
2023/03/23 07:36:20;;;;;;;1.43;1.33;;;17.20;51.10;;;;;;5043460;28;20459;-84
2023/03/23 07:38:48;;;;;;;1.90;1.70;;;17.40;51.10;;;;;;5046643;28;20799;-87
2023/03/23 07:41:15;;;;;;;2.27;1.40;;;17.20;51.80;;;;;;5051547;28;20482;-86
2023/03/23 07:43:43;;;;;;;1.87;1.40;;;17.20;51.50;;;;;;5032143;28;20559;-86
2023/03/23 07:46:10;;;;;;;1.50;1.40;;;17.40;51.60;;;;;;5057509;28;20471;-85
2023/03/23 07:48:46;;;;;;;3.07;1.40;;;17.70;50.70;;;;;;5052473;28;20467;-86
2023/03/23 07:51:17;;;;;;;2.47;1.70;;;17.80;50.90;;;;;;5057531;28;20448;-86
2023/03/23 07:53:46;;;;;;;1.53;1.43;;;18.00;50.50;;;;;;5047052;28;21948;-86
2023/03/23 07:56:36;;;;;;;2.13;1.63;;;18.10;51.60;;;;;;5072554;28;20464;-86
2023/03/23 07:59:09;;;;;;;2.67;1.90;;;18.10;51.70;;;;;;5059728;28;20450;-86
2023/03/23 08:01:38;;;;;;;2.80;2.00;;;18.00;52.00;;;;;;5056978;28;20535;-86
2023/03/23 08:04:24;;;;;;;2.03;1.60;;;17.90;53.10;;;;;;5049069;28;20435;-86
2023/03/23 08:07:24;;;;;;;1.90;1.67;;;18.10;53.10;;;;;;4999238;28;20492;-84
2023/03/23 08:10:11;;;;;;;1.60;1.50;;;17.60;52.60;;;;;;5057166;28;21014;-86
2023/03/23 08:12:59;;;;;;;3.63;2.63;;;17.70;53.40;;;;;;5056430;28;20452;-86
2023/03/23 08:16:03;;;;;;;5.67;3.60;;;17.70;52.60;;;;;;5058956;28;20475;-85
2023/03/23 08:18:48;;;;;;;2.50;2.10;;;17.60;53.00;;;;;;5056550;28;20464;-85
2023/03/23 08:21:34;;;;;;;2.77;1.60;;;17.70;52.90;;;;;;5056468;28;21107;-85
2023/03/23 08:24:19;;;;;;;2.57;1.53;;;17.80;53.50;;;;;;5055407;28;20440;-85
2023/03/23 08:26:53;;;;;;;2.50;1.50;;;17.60;53.60;;;;;;5039217;28;20500;-86
2023/03/23 08:29:40;;;;;;;2.90;1.57;;;17.60;54.10;;;;;;5045459;28;20464;-86
2023/03/23 08:32:07;;;;;;;1.40;1.20;;;17.50;53.80;;;;;;5056942;28;20455;-86
2023/03/23 08:34:53;;;;;;;2.03;1.50;;;17.40;53.90;;;;;;5059163;28;20468;-85
2023/03/23 08:37:38;;;;;;;1.97;1.50;;;17.60;54.50;;;;;;5046848;28;20455;-84
2023/03/23 08:40:23;;;;;;;2.37;1.47;;;17.90;54.10;;;;;;5059703;28;20827;-85
2023/03/23 08:43:15;;;;;;;1.80;1.20;;;17.90;54.50;;;;;;5049489;28;20543;-86
2023/03/23 08:46:06;;;;;;;1.30;1.17;;;18.00;54.40;;;;;;5064121;28;20480;-85
2023/03/23 08:48:59;;;;;;;2.17;1.23;;;17.90;54.30;;;;;;5047513;28;20444;-86
2023/03/23 08:52:01;;;;;;;1.97;1.60;;;17.70;54.40;;;;;;4956278;28;20440;-85
2023/03/23 08:54:48;;;;;;;4.30;1.47;;;17.50;54.60;;;;;;5041665;28;21017;-86
2023/03/23 08:57:29;;;;;;;1.30;1.20;;;17.20;55.60;;;;;;5050086;28;20965;-86
2023/03/23 09:00:17;;;;;;;1.33;1.23;;;17.30;55.40;;;;;;5040014;28;20453;-85
2023/03/23 09:03:04;;;;;;;2.90;1.50;;;17.60;55.00;;;;;;5063893;28;20969;-86
2023/03/23 09:06:00;;;;;;;1.37;1.10;;;17.90;54.70;;;;;;5047928;28;20471;-86
2023/03/23 09:08:37;;;;;;;2.17;1.40;;;17.90;53.70;;;;;;5051750;28;21666;-85
2023/03/23 09:11:06;;;;;;;1.30;1.20;;;17.90;54.40;;;;;;5055005;28;20523;-84
2023/03/23 09:13:35;;;;;;;1.97;1.40;;;18.20;53.70;;;;;;5073317;28;20501;-86
2023/03/23 09:16:03;;;;;;;1.77;1.23;;;18.40;53.10;;;;;;5057028;28;20459;-85
2023/03/23 09:18:30;;;;;;;1.33;1.13;;;18.40;53.80;;;;;;5045378;28;20436;-83
2023/03/23 09:20:58;;;;;;;2.20;1.47;;;18.60;53.20;;;;;;5053930;28;20440;-85
2023/03/23 09:23:25;;;;;;;3.07;1.43;;;18.40;52.40;;;;;;5057264;28;20441;-85
2023/03/23 09:25:52;;;;;;;1.60;1.30;;;18.10;52.60;;;;;;5071941;28;20593;-86
2023/03/23 09:28:19;;;;;;;1.60;1.50;;;18.10;53.70;;;;;;5049707;28;20474;-86
2023/03/23 09:30:48;;;;;;;2.20;1.40;;;18.10;54.10;;;;;;5070006;28;20569;-86
2023/03/23 09:33:15;;;;;;;1.40;1.30;;;18.30;53.60;;;;;;5030777;28;20439;-87
2023/03/23 09:35:43;;;;;;;1.40;1.30;;;18.20;53.30;;;;;;5055616;28;20892;-86
2023/03/23 09:38:12;;;;;;;2.60;1.50;;;18.30;53.90;;;;;;5047756;28;20440;-85
2023/03/23 09:40:48;;;;;;;1.83;1.50;;;18.40;53.20;;;;;;5043515;28;20449;-85
2023/03/23 09:43:39;;;;;;;1.53;1.43;;;18.30;53.70;;;;;;5040275;28;20514;-86
2023/03/23 09:46:30;;;;;;;2.13;1.20;;;17.80;53.40;;;;;;5046117;28;21450;-86
2023/03/23 09:48:59;;;;;;;5.27;1.40;;;17.80;54.00;;;;;;5026824;28;20567;-85
2023/03/23 09:51:41;;;;;;;1.87;1.50;;;17.90;53.40;;;;;;5045304;28;20469;-87
2023/03/23 09:54:15;;;;;;;2.30;1.23;;;17.90;53.80;;;;;;5059616;28;20480;-86
2023/03/23 09:56:42;;;;;;;3.10;1.30;;;18.10;54.40;;;;;;5037223;28;21604;-86
2023/03/23 09:59:16;;;;;;;1.60;1.20;;;18.20;54.50;;;;;;5042907;28;20969;-86
2023/03/23 10:01:48;;;;;;;3.57;1.33;;;18.10;54.30;;;;;;5050460;28;20855;-87
2023/03/23 10:04:25;;;;;;;1.70;1.37;;;18.10;54.80;;;;;;5046266;28;20455;-84
2023/03/23 10:06:52;;;;;;;1.80;1.40;;;18.10;55.50;;;;;;5035645;28;20491;-86
2023/03/23 10:09:20;;;;;;;2.90;1.30;;;18.00;55.50;;;;;;5055074;28;20451;-86
2023/03/23 10:12:00;;;;;;;1.20;1.03;;;17.90;55.90;;;;;;5030501;28;22021;-87
2023/03/23 10:14:42;;;;;;;1.47;1.37;;;17.80;56.40;;;;;;5039889;28;21008;-86
2023/03/23 10:17:15;;;;;;;1.40;1.30;;;17.80;57.00;;;;;;5046634;28;20554;-86
2023/03/23 10:19:51;;;;;;;2.40;2.17;;;18.00;57.10;;;;;;5067827;28;20440;-85
2023/03/23 10:22:27;;;;;;;1.40;1.20;;;18.00;56.00;;;;;;5071472;28;20509;-86
2023/03/23 10:25:04;;;;;;;1.90;1.10;;;17.70;56.10;;;;;;5030914;28;20459;-86
2023/03/23 10:27:34;;;;;;;2.63;1.30;;;17.90;56.80;;;;;;5032339;28;20980;-85
2023/03/23 10:30:13;;;;;;;2.43;1.13;;;18.30;57.10;;;;;;5039421;28;20468;-86
2023/03/23 10:32:51;;;;;;;1.53;1.20;;;18.40;54.60;;;;;;5071763;28;20489;-86
2023/03/23 10:35:30;;;;;;;3.30;1.27;;;18.40;55.50;;;;;;5055727;28;20448;-87
2023/03/23 10:38:01;;;;;;;1.57;1.30;;;18.40;54.70;;;;;;5029620;28;21712;-87
2023/03/23 10:40:32;;;;;;;3.43;1.20;;;18.40;54.70;;;;;;5036692;28;20443;-84
2023/03/23 10:42:59;;;;;;;1.70;1.00;;;18.60;53.90;;;;;;5047598;28;21022;-87
2023/03/23 10:45:32;;;;;;;1.70;1.37;;;18.80;54.90;;;;;;5036551;28;20475;-86
2023/03/23 10:48:10;;;;;;;1.67;1.37;;;19.20;54.10;;;;;;5054774;28;20452;-86
2023/03/23 10:50:39;;;;;;;4.10;1.40;;;19.30;52.50;;;;;;5061255;28;20474;-87
2023/03/23 10:53:14;;;;;;;1.50;1.40;;;19.30;52.60;;;;;;5054611;28;20455;-84
2023/03/23 10:55:44;;;;;;;1.37;1.27;;;19.30;52.50;;;;;;5039870;28;20479;-86
2023/03/23 10:58:13;;;;;;;1.20;1.10;;;19.30;52.40;;;;;;5059259;28;20848;-87
2023/03/23 11:00:46;;;;;;;1.17;1.07;;;19.20;52.30;;;;;;5038087;28;20451;-86
2023/03/23 11:03:28;;;;;;;2.13;1.00;;;19.10;52.10;;;;;;5020625;28;20848;-86
2023/03/23 11:05:58;;;;;;;1.30;0.93;;;18.90;52.20;;;;;;5047119;28;20878;-86
2023/03/23 11:08:30;;;;;;;1.37;1.27;;;19.00;51.30;;;;;;5058310;28;20519;-84
2023/03/23 11:11:00;;;;;;;1.93;1.10;;;19.00;51.50;;;;;;5032461;28;20463;-84
2023/03/23 11:13:32;;;;;;;1.20;1.10;;;19.00;51.90;;;;;;5055510;28;20453;-84
2023/03/23 11:16:00;;;;;;;1.20;1.10;;;18.90;51.70;;;;;;5043176;28;20467;-86
2023/03/23 11:18:38;;;;;;;2.90;1.13;;;18.80;51.70;;;;;;5062706;28;20538;-84
2023/03/23 11:21:08;;;;;;;1.10;1.00;;;18.80;50.90;;;;;;5067314;28;20972;-86
2023/03/23 11:23:39;;;;;;;2.73;2.40;;;18.70;50.90;;;;;;5048355;28;20446;-86
2023/03/23 11:26:14;;;;;;;1.37;1.27;;;18.70;51.20;;;;;;5066901;28;20455;-86
2023/03/23 11:28:45;;;;;;;1.13;1.00;;;18.70;51.50;;;;;;5072801;28;20444;-84
2023/03/23 11:31:12;;;;;;;3.50;1.33;;;18.70;51.20;;;;;;5056051;28;20480;-86
2023/03/23 11:33:48;;;;;;;1.20;1.10;;;19.00;51.30;;;;;;5033456;28;20526;-85
2023/03/23 11:36:16;;;;;;;1.70;1.60;;;18.90;51.30;;;;;;5033053;28;20471;-87
2023/03/23 11:38:44;;;;;;;2.00;1.80;;;18.50;52.10;;;;;;5045627;28;20452;-85
2023/03/23 11:41:12;;;;;;;1.50;1.30;;;18.40;53.70;;;;;;5059117;28;20433;-86
2023/03/23 11:43:41;;;;;;;1.87;1.33;;;18.40;53.80;;;;;;5056104;28;20455;-86
2023/03/23 11:46:19;;;;;;;1.13;1.03;;;18.70;55.10;;;;;;5070573;28;20480;-86
2023/03/23 11:48:57;;;;;;;1.83;1.20;;;18.80;53.90;;;;;;5037352;28;20440;-85
2023/03/23 11:51:31;;;;;;;1.73;1.50;;;18.30;53.90;;;;;;5029566;28;20456;-86
2023/03/23 11:54:03;;;;;;;2.57;1.80;;;18.20;55.40;;;;;;5077977;28;20457;-86
2023/03/23 11:56:34;;;;;;;1.40;1.30;;;18.40;55.30;;;;;;5041712;28;20999;-85
2023/03/23 11:59:02;;;;;;;2.50;1.50;;;18.30;55.50;;;;;;5042833;28;20545;-85
2023/03/23 12:01:44;;;;;;;1.37;1.27;;;18.30;55.20;;;;;;5073999;28;20436;-83
2023/03/23 12:04:35;;;;;;;3.47;1.70;;;18.50;55.30;;;;;;5044280;28;20539;-83
2023/03/23 12:07:22;;;;;;;2.57;1.60;;;18.60;55.20;;;;;;5042123;28;20519;-87
2023/03/23 12:09:58;;;;;;;2.80;1.83;;;18.70;54.70;;;;;;5040080;28;20448;-85
2023/03/23 12:12:32;;;;;;;1.60;1.40;;;18.70;54.50;;;;;;5034352;28;20471;-84
2023/03/23 12:15:08;;;;;;;1.50;1.40;;;18.70;55.40;;;;;;5060269;28;20487;-86
2023/03/23 12:17:45;;;;;;;2.37;1.83;;;18.60;55.00;;;;;;5059259;28;20960;-86
2023/03/23 12:20:25;;;;;;;1.70;1.60;;;18.10;55.50;;;;;;5058860;28;20518;-84
2023/03/23 12:23:09;;;;;;;1.70;1.60;;;18.10;56.10;;;;;;5047019;28;20997;-86
2023/03/23 12:25:53;;;;;;;2.30;1.63;;;18.30;56.30;;;;;;5041611;28;20466;-86
2023/03/23 12:28:31;;;;;;;1.63;1.53;;;18.10;57.10;;;;;;5034838;28;21450;-86
2023/03/23 12:31:07;;;;;;;2.93;2.00;;;18.10;57.30;;;;;;5048941;28;20575;-85
2023/03/23 12:33:46;;;;;;;1.63;1.53;;;18.00;57.30;;;;;;5029407;28;21044;-86
2023/03/23 12:36:24;;;;;;;2.10;1.77;;;18.00;57.50;;;;;;5043038;28;20907;-86
2023/03/23 12:39:06;;;;;;;1.87;1.73;;;18.30;57.30;;;;;;5023746;28;20444;-85
2023/03/23 12:41:41;;;;;;;2.80;1.67;;;18.40;56.00;;;;;;5054959;28;20443;-85
2023/03/23 12:44:12;;;;;;;2.93;2.63;;;18.40;56.80;;;;;;5045399;28;20451;-86
2023/03/23 12:47:09;;;;;;;2.13;1.93;;;18.60;57.10;;;;;;5030288;28;20463;-86
2023/03/23 12:49:42;;;;;;;6.37;2.37;;;18.80;55.40;;;;;;5006500;28;20460;-87
2023/03/23 12:52:18;;;;;;;2.27;1.80;;;18.90;55.80;;;;;;5032861;28;20456;-83
2023/03/23 12:54:53;;;;;;;2.00;1.80;;;18.80;56.60;;;;;;5061369;28;20440;-85
2023/03/23 12:57:30;;;;;;;1.50;1.40;;;18.70;56.30;;;;;;5048335;28;20470;-85
2023/03/23 13:00:10;;;;;;;1.63;1.53;;;18.80;56.60;;;;;;5021832;28;20793;-85
2023/03/23 13:02:43;;;;;;;1.50;1.27;;;18.90;56.20;;;;;;5072063;28;20535;-86
2023/03/23 13:05:26;;;;;;;1.77;1.20;;;18.80;55.90;;;;;;5030083;28;20487;-85
2023/03/23 13:07:59;;;;;;;1.37;1.27;;;18.80;56.00;;;;;;5045727;28;21236;-85
2023/03/23 13:10:30;;;;;;;1.67;1.50;;;18.60;56.00;;;;;;5026155;28;20555;-85
2023/03/23 13:12:58;;;;;;;2.13;1.30;;;18.50;56.50;;;;;;5041826;28;21089;-85
2023/03/23 13:15:36;;;;;;;3.00;1.30;;;18.50;56.60;;;;;;5057299;28;20471;-85
2023/03/23 13:18:12;;;;;;;1.27;1.13;;;18.60;55.50;;;;;;5053985;28;20568;-84
2023/03/23 13:20:55;;;;;;;1.30;1.20;;;18.80;55.80;;;;;;5070510;28;20444;-84
2023/03/23 13:23:26;;;;;;;1.00;0.90;;;18.80;54.40;;;;;;5041500;28;20449;-87